Time;durP1;ratioP1;P1;durP2;ratioP2;P2;SDS_P1;SDS_P2;PMS_P1;PMS_P2;Temp;Humidity;BMP_temperature;BMP_pressure;BME280_temperature;BME280_humidity;BME280_pressure;Samples;Min_cycle;Max_cycle;Signal;HPM_P1;HPM_P2
2023/07/21 00:00:37;;;;;;;;;;;;;;;22.92;nan;101260.75;5065112;28;19931;-82
2023/07/21 00:02:55;;;;;;;;;;;;;;;22.85;nan;101270.56;5062707;28;19923;-82
2023/07/21 00:05:24;;;;;;;;;;;;;;;22.80;nan;101266.00;5063513;28;20321;-82
2023/07/21 00:07:49;;;;;;;;;;;;;;;22.73;nan;101262.94;5060093;28;19923;-82
2023/07/21 00:10:15;;;;;;;;;;;;;;;22.68;nan;101276.75;5064774;28;19916;-83
2023/07/21 00:12:48;;;;;;;;;;;;;;;22.61;nan;101266.25;5058405;28;19970;-83
2023/07/21 00:15:17;;;;;;;;;;;;;;;22.56;nan;101276.53;5064170;28;19921;-82
2023/07/21 00:17:43;;;;;;;;;;;;;;;22.50;nan;101275.88;5060181;28;20007;-83
2023/07/21 00:20:11;;;;;;;;;;;;;;;22.44;nan;101274.41;5063338;28;19995;-82
2023/07/21 00:22:36;;;;;;;;;;;;;;;22.38;nan;101270.19;5059545;28;20011;-82
2023/07/21 00:25:05;;;;;;;;;;;;;;;22.33;nan;101266.81;5061367;28;20007;-83
2023/07/21 00:27:30;;;;;;;;;;;;;;;22.28;nan;101268.56;5063494;28;19970;-82
2023/07/21 00:29:56;;;;;;;;;;;;;;;22.24;nan;101269.47;5065817;28;19917;-82
2023/07/21 00:32:22;;;;;;;;;;;;;;;22.19;nan;101266.88;5063817;28;19917;-82
2023/07/21 00:34:48;;;;;;;;;;;;;;;22.12;nan;101261.09;5063085;28;19958;-83
2023/07/21 00:37:14;;;;;;;;;;;;;;;22.05;nan;101256.06;5067857;28;20448;-82
2023/07/21 00:39:40;;;;;;;;;;;;;;;21.99;nan;101263.53;5060047;28;19917;-82
2023/07/21 00:42:05;;;;;;;;;;;;;;;21.90;nan;101262.69;5061884;28;20399;-83
2023/07/21 00:44:31;;;;;;;;;;;;;;;21.85;nan;101260.06;5061166;28;19931;-82
2023/07/21 00:46:56;;;;;;;;;;;;;;;21.80;nan;101265.66;5063682;28;19916;-82
2023/07/21 00:49:21;;;;;;;;;;;;;;;21.76;nan;101264.69;5061351;28;19951;-82
2023/07/21 00:51:47;;;;;;;;;;;;;;;21.72;nan;101260.94;5061110;28;19920;-82
2023/07/21 00:54:12;;;;;;;;;;;;;;;21.67;nan;101252.91;5063873;28;19924;-82
2023/07/21 00:56:37;;;;;;;;;;;;;;;21.60;nan;101247.88;5058522;28;19924;-82
2023/07/21 00:59:03;;;;;;;;;;;;;;;21.54;nan;101254.56;5064311;28;20352;-83
2023/07/21 01:01:28;;;;;;;;;;;;;;;21.49;nan;101248.44;5059586;28;19939;-82
2023/07/21 01:03:54;;;;;;;;;;;;;;;21.45;nan;101250.97;5059059;28;19923;-82
2023/07/21 01:06:20;;;;;;;;;;;;;;;21.42;nan;101249.69;5056624;28;19924;-82
2023/07/21 01:08:46;;;;;;;;;;;;;;;21.39;nan;101242.13;5060524;28;20007;-82
2023/07/21 01:11:12;;;;;;;;;;;;;;;21.34;nan;101247.69;5065496;28;20453;-82
2023/07/21 01:13:39;;;;;;;;;;;;;;;21.29;nan;101245.06;5058602;28;19981;-82
2023/07/21 01:16:05;;;;;;;;;;;;;;;21.23;nan;101249.00;5059191;28;20051;-82
2023/07/21 01:18:31;;;;;;;;;;;;;;;21.16;nan;101245.88;5062578;28;19959;-82
2023/07/21 01:20:56;;;;;;;;;;;;;;;21.11;nan;101241.34;5061992;28;19920;-82
2023/07/21 01:23:26;;;;;;;;;;;;;;;21.08;nan;101249.34;5065524;28;19923;-82
2023/07/21 01:25:52;;;;;;;;;;;;;;;21.01;nan;101259.88;5060354;28;19917;-82
2023/07/21 01:28:18;;;;;;;;;;;;;;;20.98;nan;101249.56;5065565;28;19924;-82
2023/07/21 01:30:45;;;;;;;;;;;;;;;20.93;nan;101249.69;5060769;28;20035;-83
2023/07/21 01:33:13;;;;;;;;;;;;;;;20.89;nan;101256.84;5062575;28;20498;-82
2023/07/21 01:35:40;;;;;;;;;;;;;;;20.85;nan;101255.84;5059010;28;20380;-82
2023/07/21 01:38:06;;;;;;;;;;;;;;;20.78;nan;101251.59;5056716;28;19932;-82
2023/07/21 01:40:31;;;;;;;;;;;;;;;20.76;nan;101247.56;5053302;28;19981;-82
2023/07/21 01:42:57;;;;;;;;;;;;;;;20.74;nan;101250.59;5054923;28;20289;-82
2023/07/21 01:45:22;;;;;;;;;;;;;;;20.70;nan;101249.59;5059461;28;19925;-83
2023/07/21 01:47:48;;;;;;;;;;;;;;;20.66;nan;101251.34;5058825;28;20408;-82
2023/07/21 01:50:17;;;;;;;;;;;;;;;20.60;nan;101249.81;5054760;28;20456;-82
2023/07/21 01:52:45;;;;;;;;;;;;;;;20.53;nan;101243.97;5057470;28;19924;-82
2023/07/21 01:55:37;;;;;;;;;;;;;;;20.45;nan;101245.47;5055644;28;19917;-82
2023/07/21 01:58:03;;;;;;;;;;;;;;;20.38;nan;101252.38;5053193;28;20376;-82
2023/07/21 02:00:32;;;;;;;;;;;;;;;20.31;nan;101254.72;5055111;28;19964;-82
2023/07/21 02:02:59;;;;;;;;;;;;;;;20.28;nan;101256.09;5054190;28;19983;-82
2023/07/21 02:05:26;;;;;;;;;;;;;;;20.25;nan;101253.97;5060152;28;20007;-82
2023/07/21 02:07:51;;;;;;;;;;;;;;;20.22;nan;101244.50;5054965;28;20392;-82
2023/07/21 02:10:17;;;;;;;;;;;;;;;20.17;nan;101255.50;5057021;28;19924;-82
2023/07/21 02:12:42;;;;;;;;;;;;;;;20.13;nan;101256.41;5055126;28;19916;-82
2023/07/21 02:15:09;;;;;;;;;;;;;;;20.07;nan;101247.50;5056803;28;20449;-82
2023/07/21 02:17:34;;;;;;;;;;;;;;;20.03;nan;101242.97;5054296;28;19981;-82
2023/07/21 02:19:59;;;;;;;;;;;;;;;19.98;nan;101253.94;5059236;28;19916;-82
2023/07/21 02:22:25;;;;;;;;;;;;;;;19.89;nan;101254.63;5057582;28;20002;-82
2023/07/21 02:24:50;;;;;;;;;;;;;;;19.87;nan;101247.88;5055381;28;19971;-82
2023/07/21 02:27:15;;;;;;;;;;;;;;;19.84;nan;101256.63;5057950;28;20322;-82
2023/07/21 02:29:41;;;;;;;;;;;;;;;19.83;nan;101252.28;5059612;28;20368;-82
2023/07/21 02:32:06;;;;;;;;;;;;;;;19.82;nan;101254.22;5057371;28;19989;-82
2023/07/21 02:34:32;;;;;;;;;;;;;;;19.78;nan;101250.47;5059200;28;20407;-82
2023/07/21 02:36:57;;;;;;;;;;;;;;;19.72;nan;101245.41;5057266;28;19967;-82
2023/07/21 02:39:22;;;;;;;;;;;;;;;19.67;nan;101248.22;5052316;28;20003;-82
2023/07/21 02:41:48;;;;;;;;;;;;;;;19.60;nan;101248.59;5055693;28;20094;-82
2023/07/21 02:44:13;;;;;;;;;;;;;;;19.55;nan;101252.19;5056182;28;20071;-82
2023/07/21 02:46:39;;;;;;;;;;;;;;;19.52;nan;101247.31;5054092;28;19920;-83
2023/07/21 02:49:04;;;;;;;;;;;;;;;19.50;nan;101254.16;5059836;28;19924;-82
2023/07/21 02:51:29;;;;;;;;;;;;;;;19.48;nan;101245.47;5059317;28;20464;-83
2023/07/21 02:53:55;;;;;;;;;;;;;;;19.46;nan;101248.50;5055433;28;19917;-82
2023/07/21 02:56:20;;;;;;;;;;;;;;;19.43;nan;101242.84;5056537;28;19967;-82
2023/07/21 02:58:45;;;;;;;;;;;;;;;19.40;nan;101241.53;5056933;28;19974;-82
2023/07/21 03:01:12;;;;;;;;;;;;;;;19.36;nan;101243.22;5057304;28;19920;-82
2023/07/21 03:03:38;;;;;;;;;;;;;;;19.33;nan;101244.59;5058333;28;19920;-82
2023/07/21 03:06:05;;;;;;;;;;;;;;;19.31;nan;101246.00;5058034;28;19931;-81
2023/07/21 03:08:30;;;;;;;;;;;;;;;19.28;nan;101246.59;5061134;28;19986;-82
2023/07/21 03:10:56;;;;;;;;;;;;;;;19.24;nan;101245.59;5057960;28;20392;-82
2023/07/21 03:13:25;;;;;;;;;;;;;;;19.22;nan;101250.50;5059762;28;20011;-82
2023/07/21 03:15:51;;;;;;;;;;;;;;;19.17;nan;101245.13;5059821;28;19917;-82
2023/07/21 03:18:17;;;;;;;;;;;;;;;19.15;nan;101250.03;5055901;28;20044;-82
2023/07/21 03:20:42;;;;;;;;;;;;;;;19.15;nan;101247.31;5055993;28;19920;-83
2023/07/21 03:23:07;;;;;;;;;;;;;;;19.13;nan;101244.09;5057459;28;19970;-82
2023/07/21 03:25:33;;;;;;;;;;;;;;;19.12;nan;101239.78;5052237;28;20065;-82
2023/07/21 03:27:59;;;;;;;;;;;;;;;19.10;nan;101244.69;5054382;28;19924;-82
2023/07/21 03:30:24;;;;;;;;;;;;;;;19.05;nan;101237.44;5053560;28;19924;-82
2023/07/21 03:32:49;;;;;;;;;;;;;;;19.03;nan;101231.47;5053854;28;20052;-82
2023/07/21 03:35:15;;;;;;;;;;;;;;;19.02;nan;101238.78;5061782;28;20402;-82
2023/07/21 03:37:40;;;;;;;;;;;;;;;19.02;nan;101232.56;5056153;28;19966;-82
2023/07/21 03:40:06;;;;;;;;;;;;;;;19.01;nan;101241.81;5059490;28;19925;-82
2023/07/21 03:42:32;;;;;;;;;;;;;;;19.02;nan;101233.38;5057388;28;19924;-82
2023/07/21 03:44:58;;;;;;;;;;;;;;;19.04;nan;101237.72;5059590;28;19926;-82
2023/07/21 03:47:23;;;;;;;;;;;;;;;19.06;nan;101235.53;5057217;28;20015;-82
2023/07/21 03:49:50;;;;;;;;;;;;;;;19.07;nan;101228.97;5057388;28;19939;-82
2023/07/21 03:52:16;;;;;;;;;;;;;;;19.10;nan;101234.63;5058559;28;20376;-82
2023/07/21 03:54:41;;;;;;;;;;;;;;;19.13;nan;101242.19;5056798;28;19925;-81
2023/07/21 03:57:07;;;;;;;;;;;;;;;19.15;nan;101241.91;5060672;28;19924;-83
2023/07/21 03:59:32;;;;;;;;;;;;;;;19.11;nan;101246.31;5059337;28;20019;-82
2023/07/21 04:01:57;;;;;;;;;;;;;;;19.07;nan;101239.84;5053502;28;19920;-83
2023/07/21 04:04:23;;;;;;;;;;;;;;;19.07;nan;101239.84;5058596;28;20023;-82
2023/07/21 04:06:48;;;;;;;;;;;;;;;19.11;nan;101238.16;5063596;28;20574;-82
2023/07/21 04:09:13;;;;;;;;;;;;;;;19.14;nan;101237.56;5059061;28;20007;-82
2023/07/21 04:11:39;;;;;;;;;;;;;;;19.18;nan;101235.88;5055808;28;19933;-82
2023/07/21 04:14:05;;;;;;;;;;;;;;;19.28;nan;101243.88;5057835;28;20544;-82
2023/07/21 04:16:32;;;;;;;;;;;;;;;19.35;nan;101240.78;5062446;28;20399;-82
2023/07/21 04:18:58;;;;;;;;;;;;;;;19.40;nan;101238.81;5055472;28;19931;-82
2023/07/21 04:21:23;;;;;;;;;;;;;;;19.46;nan;101232.19;5057477;28;20562;-82
2023/07/21 04:23:48;;;;;;;;;;;;;;;19.49;nan;101239.75;5056808;28;20404;-82
2023/07/21 04:26:14;;;;;;;;;;;;;;;19.54;nan;101234.25;5063569;28;20142;-82
2023/07/21 04:28:41;;;;;;;;;;;;;;;19.63;nan;101236.31;5059087;28;20304;-82
2023/07/21 04:31:06;;;;;;;;;;;;;;;19.75;nan;101242.06;5060082;28;20369;-82
2023/07/21 04:33:32;;;;;;;;;;;;;;;19.84;nan;101238.41;5056257;28;19927;-82
2023/07/21 04:35:57;;;;;;;;;;;;;;;19.94;nan;101247.50;5059686;28;19920;-82
2023/07/21 04:38:22;;;;;;;;;;;;;;;20.01;nan;101248.72;5055099;28;20349;-83
2023/07/21 04:40:47;;;;;;;;;;;;;;;20.06;nan;101248.63;5057492;28;19974;-82
2023/07/21 04:43:13;;;;;;;;;;;;;;;20.12;nan;101241.19;5057446;28;19924;-83
2023/07/21 04:45:42;;;;;;;;;;;;;;;20.19;nan;101249.75;5057343;28;19986;-82
2023/07/21 04:48:08;;;;;;;;;;;;;;;20.28;nan;101247.13;5058107;28;19932;-83
2023/07/21 04:50:33;;;;;;;;;;;;;;;20.36;nan;101238.28;5064701;28;19921;-83
2023/07/21 04:52:58;;;;;;;;;;;;;;;20.46;nan;101248.97;5056223;28;20377;-82
2023/07/21 04:55:26;;;;;;;;;;;;;;;20.54;nan;101245.56;5058916;28;19924;-85
2023/07/21 04:57:52;;;;;;;;;;;;;;;20.61;nan;101256.03;5060163;28;19920;-84
2023/07/21 05:00:18;;;;;;;;;;;;;;;20.65;nan;101247.00;5056474;28;20197;-85
2023/07/21 05:02:43;;;;;;;;;;;;;;;20.68;nan;101254.56;5051867;28;19924;-85
2023/07/21 05:05:09;;;;;;;;;;;;;;;20.73;nan;101259.88;5057506;28;19955;-84
2023/07/21 05:07:34;;;;;;;;;;;;;;;20.78;nan;101256.25;5054958;28;20356;-85
2023/07/21 05:09:59;;;;;;;;;;;;;;;20.85;nan;101250.41;5057561;28;19939;-84
2023/07/21 05:12:25;;;;;;;;;;;;;;;20.89;nan;101254.13;5057708;28;19920;-85
2023/07/21 05:14:51;;;;;;;;;;;;;;;20.98;nan;101263.19;5055992;28;20275;-85
2023/07/21 05:17:17;;;;;;;;;;;;;;;21.02;nan;101256.84;5059370;28;19927;-84
2023/07/21 05:19:43;;;;;;;;;;;;;;;21.09;nan;101251.75;5053222;28;19952;-85
2023/07/21 05:22:09;;;;;;;;;;;;;;;21.19;nan;101234.41;5055443;28;20024;-85
2023/07/21 05:24:34;;;;;;;;;;;;;;;21.36;nan;101214.66;5058390;28;20471;-84
2023/07/21 05:26:59;;;;;;;;;;;;;;;21.55;nan;101214.50;5054707;28;20348;-84
2023/07/21 05:29:25;;;;;;;;;;;;;;;21.74;nan;101226.00;5058791;28;19925;-84
2023/07/21 05:31:52;;;;;;;;;;;;;;;21.91;nan;101231.56;5055564;28;19928;-84
2023/07/21 05:34:17;;;;;;;;;;;;;;;22.00;nan;101237.88;5053209;28;19924;-85
2023/07/21 05:36:42;;;;;;;;;;;;;;;22.04;nan;101238.03;5056574;28;20436;-85
2023/07/21 05:39:08;;;;;;;;;;;;;;;22.11;nan;101237.66;5055257;28;19964;-85
2023/07/21 05:41:33;;;;;;;;;;;;;;;22.19;nan;101231.41;5058752;28;20007;-84
2023/07/21 05:43:58;;;;;;;;;;;;;;;22.31;nan;101237.09;5057007;28;19917;-84
2023/07/21 05:46:24;;;;;;;;;;;;;;;22.37;nan;101230.34;5054205;28;20399;-84
2023/07/21 05:48:49;;;;;;;;;;;;;;;22.50;nan;101229.44;5057296;28;19916;-85
2023/07/21 05:51:15;;;;;;;;;;;;;;;22.63;nan;101229.66;5056979;28;19924;-85
2023/07/21 05:53:40;;;;;;;;;;;;;;;22.77;nan;101228.38;5054781;28;19916;-85
2023/07/21 05:56:08;;;;;;;;;;;;;;;22.92;nan;101224.44;5056568;28;19920;-85
2023/07/21 05:58:36;;;;;;;;;;;;;;;23.05;nan;101226.22;5055485;28;19920;-85
2023/07/21 06:01:02;;;;;;;;;;;;;;;23.19;nan;101228.81;5054636;28;19917;-85
2023/07/21 06:03:28;;;;;;;;;;;;;;;23.36;nan;101223.34;5056284;28;19988;-85
2023/07/21 06:05:53;;;;;;;;;;;;;;;23.56;nan;101221.88;5053614;28;19952;-85
2023/07/21 06:08:19;;;;;;;;;;;;;;;23.71;nan;101218.66;5056700;28;19943;-85
2023/07/21 06:10:44;;;;;;;;;;;;;;;23.92;nan;101217.97;5052324;28;20459;-84
2023/07/21 06:13:10;;;;;;;;;;;;;;;24.07;nan;101214.69;5055172;28;19924;-84
2023/07/21 06:15:36;;;;;;;;;;;;;;;24.19;nan;101223.00;5053971;28;19921;-85
2023/07/21 06:18:02;;;;;;;;;;;;;;;24.33;nan;101218.16;5051867;28;19924;-85
2023/07/21 06:20:28;;;;;;;;;;;;;;;24.50;nan;101219.19;5056365;28;20405;-85
2023/07/21 06:22:53;;;;;;;;;;;;;;;24.57;nan;101220.25;5054522;28;19928;-85
2023/07/21 06:25:19;;;;;;;;;;;;;;;24.63;nan;101215.41;5056960;28;19965;-85
2023/07/21 06:27:46;;;;;;;;;;;;;;;24.66;nan;101214.75;5055435;28;19935;-84
2023/07/21 06:30:13;;;;;;;;;;;;;;;24.68;nan;101218.75;5054835;28;19921;-85
2023/07/21 06:32:40;;;;;;;;;;;;;;;24.67;nan;101219.91;5050506;28;19944;-85
2023/07/21 06:35:06;;;;;;;;;;;;;;;24.68;nan;101215.22;5053721;28;20360;-85
2023/07/21 06:37:31;;;;;;;;;;;;;;;24.64;nan;101217.03;5055005;28;19920;-85
2023/07/21 06:39:57;;;;;;;;;;;;;;;24.66;nan;101215.56;5054095;28;19924;-84
2023/07/21 06:42:22;;;;;;;;;;;;;;;24.68;nan;101212.47;5055920;28;20403;-85
2023/07/21 06:44:48;;;;;;;;;;;;;;;24.69;nan;101208.59;5053856;28;19921;-85
2023/07/21 06:47:14;;;;;;;;;;;;;;;24.79;nan;101208.22;5054774;28;20058;-84
2023/07/21 06:49:39;;;;;;;;;;;;;;;24.92;nan;101206.34;5052905;28;19943;-84
2023/07/21 06:52:05;;;;;;;;;;;;;;;25.08;nan;101203.84;5055528;28;20021;-84
2023/07/21 06:54:31;;;;;;;;;;;;;;;25.21;nan;101220.03;5048078;28;19959;-83
2023/07/21 06:56:58;;;;;;;;;;;;;;;25.29;nan;101213.66;5051597;28;20354;-85
2023/07/21 06:59:23;;;;;;;;;;;;;;;25.30;nan;101206.22;5051956;28;19965;-85
2023/07/21 07:01:48;;;;;;;;;;;;;;;25.27;nan;101204.16;5052865;28;19916;-84
2023/07/21 07:04:13;;;;;;;;;;;;;;;25.34;nan;101207.19;5057604;28;19959;-84
2023/07/21 07:06:39;;;;;;;;;;;;;;;25.41;nan;101206.63;5058476;28;19921;-84
2023/07/21 07:09:04;;;;;;;;;;;;;;;25.54;nan;101208.28;5049697;28;19951;-85
2023/07/21 07:11:30;;;;;;;;;;;;;;;25.64;nan;101198.81;5053206;28;20327;-85
2023/07/21 07:13:55;;;;;;;;;;;;;;;25.71;nan;101204.59;5053436;28;19917;-84
2023/07/21 07:16:20;;;;;;;;;;;;;;;25.76;nan;101196.13;5053953;28;20007;-84
2023/07/21 07:18:46;;;;;;;;;;;;;;;25.82;nan;101201.06;5053063;28;19924;-85
2023/07/21 07:21:12;;;;;;;;;;;;;;;25.81;nan;101204.94;5055253;28;20011;-84
2023/07/21 07:23:38;;;;;;;;;;;;;;;25.79;nan;101204.47;5053615;28;19987;-85
2023/07/21 07:26:05;;;;;;;;;;;;;;;25.79;nan;101206.44;5052663;28;19952;-85
2023/07/21 07:28:30;;;;;;;;;;;;;;;25.81;nan;101204.13;5051112;28;20396;-84
2023/07/21 07:30:55;;;;;;;;;;;;;;;25.83;nan;101201.84;5055258;28;19946;-84
2023/07/21 07:33:21;;;;;;;;;;;;;;;25.85;nan;101191.31;5049729;28;20214;-85
2023/07/21 07:35:47;;;;;;;;;;;;;;;25.87;nan;101189.88;5055858;28;19921;-85
2023/07/21 07:38:12;;;;;;;;;;;;;;;25.85;nan;101194.06;5052651;28;20384;-85
2023/07/21 07:40:38;;;;;;;;;;;;;;;25.88;nan;101198.91;5053105;28;19932;-85
2023/07/21 07:43:03;;;;;;;;;;;;;;;25.91;nan;101198.22;5056148;28;20009;-85
2023/07/21 07:45:29;;;;;;;;;;;;;;;25.90;nan;101200.16;5048721;28;19927;-85
2023/07/21 07:47:55;;;;;;;;;;;;;;;25.89;nan;101206.00;5052911;28;19936;-84
2023/07/21 07:50:21;;;;;;;;;;;;;;;25.87;nan;101209.09;5052538;28;19924;-85
2023/07/21 07:52:46;;;;;;;;;;;;;;;25.76;nan;101218.09;5053090;28;19921;-85
2023/07/21 07:55:11;;;;;;;;;;;;;;;25.59;nan;101214.34;5056121;28;19917;-85
2023/07/21 07:57:37;;;;;;;;;;;;;;;25.55;nan;101215.38;5058891;28;19963;-84
2023/07/21 08:00:05;;;;;;;;;;;;;;;25.52;nan;101208.63;5056016;28;19924;-84
2023/07/21 08:02:30;;;;;;;;;;;;;;;25.51;nan;101222.69;5053834;28;20518;-85
2023/07/21 08:04:55;;;;;;;;;;;;;;;25.38;nan;101218.28;5055190;28;19920;-86
2023/07/21 08:07:21;;;;;;;;;;;;;;;25.39;nan;101209.72;5055385;28;19959;-86
2023/07/21 08:09:46;;;;;;;;;;;;;;;25.39;nan;101204.22;5059903;28;19930;-86
2023/07/21 08:12:11;;;;;;;;;;;;;;;25.41;nan;101210.16;5055104;28;19952;-86
2023/07/21 08:14:37;;;;;;;;;;;;;;;25.45;nan;101202.84;5053342;28;19917;-86
2023/07/21 08:17:02;;;;;;;;;;;;;;;25.43;nan;101207.88;5061133;28;19924;-86
2023/07/21 08:19:30;;;;;;;;;;;;;;;25.44;nan;101216.91;5061672;28;19943;-86
2023/07/21 08:21:55;;;;;;;;;;;;;;;25.43;nan;101207.88;5054801;28;19921;-86
2023/07/21 08:24:21;;;;;;;;;;;;;;;25.46;nan;101204.47;5052367;28;19928;-86
2023/07/21 08:26:46;;;;;;;;;;;;;;;25.46;nan;101204.47;5057110;28;19924;-86
2023/07/21 08:29:11;;;;;;;;;;;;;;;25.44;nan;101204.00;5051316;28;19928;-86
2023/07/21 08:31:37;;;;;;;;;;;;;;;25.50;nan;101210.91;5055480;28;19952;-85
2023/07/21 08:34:02;;;;;;;;;;;;;;;25.53;nan;101204.72;5060843;28;19917;-85
2023/07/21 08:36:27;;;;;;;;;;;;;;;25.55;nan;101199.72;5060243;28;19959;-86
2023/07/21 08:38:52;;;;;;;;;;;;;;;25.71;nan;101205.38;5059325;28;20372;-86
2023/07/21 08:41:20;;;;;;;;;;;;;;;25.83;nan;101201.84;5056041;28;20456;-86
2023/07/21 08:43:46;;;;;;;;;;;;;;;25.96;nan;101203.47;5055721;28;19964;-85
2023/07/21 08:46:11;;;;;;;;;;;;;;;26.14;nan;101196.63;5058040;28;20007;-85
2023/07/21 08:48:38;;;;;;;;;;;;;;;26.30;nan;101209.69;5057607;28;20019;-86
2023/07/21 08:51:04;;;;;;;;;;;;;;;26.40;nan;101203.78;5058616;28;19924;-86
2023/07/21 08:53:29;;;;;;;;;;;;;;;26.48;nan;101197.34;5056023;28;20014;-86
2023/07/21 08:55:55;;;;;;;;;;;;;;;26.64;nan;101198.25;5058182;28;19970;-86
2023/07/21 08:58:21;;;;;;;;;;;;;;;26.71;nan;101203.97;5054684;28;19960;-85
2023/07/21 09:00:48;;;;;;;;;;;;;;;26.76;nan;101198.25;5054003;28;19975;-86
2023/07/21 09:03:20;;;;;;;;;;;;;;;26.91;nan;101207.69;5058020;28;19927;-86
2023/07/21 09:05:46;;;;;;;;;;;;;;;26.88;nan;101207.59;5059670;28;19960;-85
2023/07/21 09:08:19;;;;;;;;;;;;;;;26.88;nan;101202.09;5058991;28;19916;-84
2023/07/21 09:10:44;;;;;;;;;;;;;;;26.92;nan;101195.56;5055062;28;20005;-86
2023/07/21 09:13:16;;;;;;;;;;;;;;;27.06;nan;101192.44;5057122;28;19916;-88
2023/07/21 09:15:55;;;;;;;;;;;;;;;27.15;nan;101190.38;5059256;28;20419;-87
2023/07/21 09:18:24;;;;;;;;;;;;;;;27.23;nan;101186.66;5056827;28;19950;-86
2023/07/21 09:20:49;;;;;;;;;;;;;;;27.36;nan;101188.22;5058829;28;19916;-85
2023/07/21 09:23:17;;;;;;;;;;;;;;;27.47;nan;101179.44;5060447;28;20248;-86
2023/07/21 09:25:53;;;;;;;;;;;;;;;27.62;nan;101184.19;5058904;28;19916;-86
2023/07/21 09:28:20;;;;;;;;;;;;;;;27.74;nan;101186.09;5059622;28;19924;-86
2023/07/21 09:30:50;;;;;;;;;;;;;;;27.83;nan;101179.28;5058496;28;19931;-86
2023/07/21 09:33:15;;;;;;;;;;;;;;;27.86;nan;101170.31;5058731;28;20192;-86
2023/07/21 09:35:40;;;;;;;;;;;;;;;27.80;nan;101185.47;5056861;28;19921;-86
2023/07/21 09:38:10;;;;;;;;;;;;;;;27.78;nan;101178.72;5060019;28;20079;-86
2023/07/21 09:40:40;;;;;;;;;;;;;;;27.80;nan;101176.41;5058386;28;19931;-86
2023/07/21 09:43:07;;;;;;;;;;;;;;;27.86;nan;101183.28;5056382;28;19916;-86
2023/07/21 09:45:32;;;;;;;;;;;;;;;27.96;nan;101180.78;5056399;28;19917;-85
2023/07/21 09:47:59;;;;;;;;;;;;;;;28.01;nan;101179.72;5059931;28;20392;-85
2023/07/21 09:50:24;;;;;;;;;;;;;;;28.02;nan;101177.78;5057257;28;19925;-86
2023/07/21 09:52:53;;;;;;;;;;;;;;;28.07;nan;101185.75;5061410;28;19923;-86
2023/07/21 09:55:21;;;;;;;;;;;;;;;28.06;nan;101173.94;5057950;28;19921;-85
2023/07/21 09:57:47;;;;;;;;;;;;;;;28.09;nan;101188.94;5060673;28;19928;-87
2023/07/21 10:00:14;;;;;;;;;;;;;;;28.05;nan;101182.56;5058228;28;19925;-86
2023/07/21 10:02:41;;;;;;;;;;;;;;;28.16;nan;101176.13;5060050;28;19927;-86
2023/07/21 10:05:09;;;;;;;;;;;;;;;28.28;nan;101187.09;5056486;28;20003;-86
2023/07/21 10:07:35;;;;;;;;;;;;;;;28.38;nan;101183.00;5063244;28;19979;-86
2023/07/21 10:10:01;;;;;;;;;;;;;;;28.31;nan;101184.78;5060655;28;19928;-86
2023/07/21 10:12:39;;;;;;;;;;;;;;;28.30;nan;101178.47;5057309;28;20152;-86
2023/07/21 10:15:15;;;;;;;;;;;;;;;28.36;nan;101170.72;5059068;28;20403;-85
2023/07/21 10:17:55;;;;;;;;;;;;;;;28.56;nan;101167.69;5056249;28;19936;-85
2023/07/21 10:20:21;;;;;;;;;;;;;;;28.83;nan;101173.34;5055839;28;19931;-84
2023/07/21 10:22:56;;;;;;;;;;;;;;;29.00;nan;101164.69;5058331;28;19924;-85
2023/07/21 10:25:24;;;;;;;;;;;;;;;29.04;nan;101162.78;5058038;28;19973;-85
2023/07/21 10:28:03;;;;;;;;;;;;;;;29.14;nan;101161.41;5060232;28;19924;-85
2023/07/21 10:30:28;;;;;;;;;;;;;;;29.15;nan;101161.06;5057843;28;19925;-84
2023/07/21 10:32:53;;;;;;;;;;;;;;;29.24;nan;101160.00;5060335;28;19917;-85
2023/07/21 10:35:36;;;;;;;;;;;;;;;29.31;nan;101158.22;5057422;28;19920;-85
2023/07/21 10:38:14;;;;;;;;;;;;;;;29.13;nan;101157.88;5058441;28;19978;-84
2023/07/21 10:40:43;;;;;;;;;;;;;;;29.10;nan;101155.03;5059403;28;20102;-85
2023/07/21 10:43:08;;;;;;;;;;;;;;;29.10;nan;101153.09;5054361;28;19932;-85
2023/07/21 10:45:34;;;;;;;;;;;;;;;29.03;nan;101149.38;5057741;28;20414;-84
2023/07/21 10:48:12;;;;;;;;;;;;;;;29.01;nan;101141.47;5061116;28;19927;-85
2023/07/21 10:50:40;;;;;;;;;;;;;;;29.01;nan;101146.16;5060296;28;19923;-85
2023/07/21 10:53:06;;;;;;;;;;;;;;;28.97;nan;101143.34;5057795;28;19928;-85
2023/07/21 10:55:31;;;;;;;;;;;;;;;28.81;nan;101137.06;5056218;28;20308;-84
2023/07/21 10:57:57;;;;;;;;;;;;;;;28.75;nan;101135.78;5056284;28;19940;-84
2023/07/21 11:00:22;;;;;;;;;;;;;;;28.75;nan;101133.81;5058193;28;19943;-84
2023/07/21 11:02:52;;;;;;;;;;;;;;;28.79;nan;101139.41;5061304;28;19979;-85
2023/07/21 11:05:18;;;;;;;;;;;;;;;28.77;nan;101125.19;5054872;28;20007;-84
2023/07/21 11:07:43;;;;;;;;;;;;;;;28.79;nan;101120.09;5056896;28;19935;-85
2023/07/21 11:10:08;;;;;;;;;;;;;;;28.89;nan;101130.56;5056900;28;20007;-85
2023/07/21 11:12:34;;;;;;;;;;;;;;;28.99;nan;101126.44;5055763;28;20507;-84
2023/07/21 11:14:59;;;;;;;;;;;;;;;29.07;nan;101123.44;5057693;28;19921;-84
2023/07/21 11:17:25;;;;;;;;;;;;;;;29.18;nan;101113.41;5057282;28;19922;-84
2023/07/21 11:19:50;;;;;;;;;;;;;;;29.31;nan;101111.28;5058982;28;20007;-84
2023/07/21 11:22:16;;;;;;;;;;;;;;;29.44;nan;101114.66;5058126;28;20527;-84
2023/07/21 11:24:41;;;;;;;;;;;;;;;29.51;nan;101111.28;5054929;28;20439;-84
2023/07/21 11:27:07;;;;;;;;;;;;;;;29.55;nan;101115.69;5058976;28;20285;-84
2023/07/21 11:29:38;;;;;;;;;;;;;;;29.61;nan;101105.13;5062492;28;19927;-84
2023/07/21 11:32:15;;;;;;;;;;;;;;;29.60;nan;101107.09;5064246;28;20007;-84
2023/07/21 11:34:40;;;;;;;;;;;;;;;29.62;nan;101104.75;5060534;28;19921;-85
2023/07/21 11:37:05;;;;;;;;;;;;;;;29.55;nan;101104.63;5062666;28;20281;-85
2023/07/21 11:39:31;;;;;;;;;;;;;;;29.48;nan;101102.56;5060238;28;19936;-84
2023/07/21 11:42:00;;;;;;;;;;;;;;;29.51;nan;101103.78;5059611;28;20380;-85
2023/07/21 11:44:30;;;;;;;;;;;;;;;29.50;nan;101096.69;5057598;28;19917;-85
2023/07/21 11:46:55;;;;;;;;;;;;;;;29.44;nan;101095.34;5057491;28;19920;-85
2023/07/21 11:49:22;;;;;;;;;;;;;;;29.36;nan;101097.19;5059227;28;20335;-85
2023/07/21 11:51:49;;;;;;;;;;;;;;;29.34;nan;101093.19;5058708;28;19927;-85
2023/07/21 11:54:21;;;;;;;;;;;;;;;29.30;nan;101093.13;5061318;28;20014;-85
2023/07/21 11:56:47;;;;;;;;;;;;;;;29.32;nan;101099.09;5055243;28;19919;-85
2023/07/21 11:59:12;;;;;;;;;;;;;;;29.26;nan;101097.78;5059450;28;19927;-85
2023/07/21 12:01:38;;;;;;;;;;;;;;;29.23;nan;101098.50;5058965;28;19924;-85
2023/07/21 12:04:04;;;;;;;;;;;;;;;29.16;nan;101093.66;5056791;28;20147;-85
2023/07/21 12:06:29;;;;;;;;;;;;;;;29.06;nan;101088.75;5060494;28;19920;-84
2023/07/21 12:08:54;;;;;;;;;;;;;;;29.05;nan;101087.16;5054080;28;19921;-85
2023/07/21 12:11:20;;;;;;;;;;;;;;;28.93;nan;101084.56;5057669;28;20292;-85
2023/07/21 12:13:45;;;;;;;;;;;;;;;28.88;nan;101085.63;5059009;28;20297;-84
2023/07/21 12:16:11;;;;;;;;;;;;;;;28.86;nan;101092.69;5059369;28;19955;-85
2023/07/21 12:18:38;;;;;;;;;;;;;;;28.90;nan;101077.00;5057863;28;19921;-84
2023/07/21 12:21:06;;;;;;;;;;;;;;;28.99;nan;101077.59;5058411;28;19924;-85
2023/07/21 12:23:32;;;;;;;;;;;;;;;29.04;nan;101077.28;5057529;28;20130;-84
2023/07/21 12:25:57;;;;;;;;;;;;;;;29.10;nan;101073.06;5058220;28;20412;-84
2023/07/21 12:28:22;;;;;;;;;;;;;;;29.12;nan;101078.22;5059031;28;19966;-85
2023/07/21 12:30:48;;;;;;;;;;;;;;;29.04;nan;101077.28;5061123;28;19931;-84
2023/07/21 12:33:13;;;;;;;;;;;;;;;28.94;nan;101069.59;5058636;28;19916;-85
2023/07/21 12:35:38;;;;;;;;;;;;;;;28.86;nan;101073.38;5061302;28;20315;-84
2023/07/21 12:38:04;;;;;;;;;;;;;;;28.81;nan;101068.13;5058571;28;20412;-84
2023/07/21 12:40:29;;;;;;;;;;;;;;;28.81;nan;101073.66;5063138;28;19916;-84
2023/07/21 12:42:54;;;;;;;;;;;;;;;28.79;nan;101075.97;5062078;28;20368;-84
2023/07/21 12:45:19;;;;;;;;;;;;;;;28.73;nan;101072.72;5059388;28;20285;-84
2023/07/21 12:47:45;;;;;;;;;;;;;;;28.68;nan;101072.19;5061241;28;20391;-84
2023/07/21 12:50:10;;;;;;;;;;;;;;;28.67;nan;101067.84;5060349;28;19921;-84
2023/07/21 12:52:35;;;;;;;;;;;;;;;28.63;nan;101070.53;5058747;28;19947;-83